Time;durP1;ratioP1;P1;durP2;ratioP2;P2;SDS_P1;SDS_P2;PMS_P1;PMS_P2;Temp;Humidity;BMP_temperature;BMP_pressure;BME280_temperature;BME280_humidity;BME280_pressure;Samples;Min_cycle;Max_cycle;Signal;HPM_P1;HPM_P2
2023/08/18 00:00:31;;;;;;;38.50;23.45;;;17.60;99.90;;;;;;5017961;28;20183;-75
2023/08/18 00:02:57;;;;;;;39.50;22.67;;;17.60;99.90;;;;;;5017605;28;20683;-75
2023/08/18 00:05:23;;;;;;;36.30;22.80;;;17.60;99.90;;;;;;5035685;28;20266;-75
2023/08/18 00:07:48;;;;;;;41.63;25.52;;;17.60;99.90;;;;;;5036215;28;20254;-75
2023/08/18 00:10:14;;;;;;;34.40;21.63;;;17.60;99.90;;;;;;5018188;28;20219;-75
2023/08/18 00:12:40;;;;;;;34.83;22.58;;;17.60;99.90;;;;;;5035988;28;20206;-75
2023/08/18 00:15:06;;;;;;;34.47;19.27;;;17.60;99.90;;;;;;5018113;28;20606;-75
2023/08/18 00:17:31;;;;;;;46.28;24.67;;;17.60;99.90;;;;;;5035703;28;20175;-75
2023/08/18 00:19:57;;;;;;;40.05;22.65;;;17.60;99.90;;;;;;5035727;28;20246;-75
2023/08/18 00:22:23;;;;;;;38.00;23.30;;;17.60;99.90;;;;;;5035851;28;20199;-75
2023/08/18 00:24:49;;;;;;;36.63;23.05;;;17.60;99.90;;;;;;5035895;28;20179;-75
2023/08/18 00:27:15;;;;;;;41.88;23.60;;;17.60;99.90;;;;;;5035625;28;20174;-75
2023/08/18 00:29:40;;;;;;;41.83;22.73;;;17.60;99.90;;;;;;5035622;28;20182;-76
2023/08/18 00:32:06;;;;;;;39.47;23.30;;;17.60;99.90;;;;;;5017511;28;20187;-76
2023/08/18 00:34:32;;;;;;;41.97;23.40;;;17.60;99.90;;;;;;5017808;28;20178;-75
2023/08/18 00:36:57;;;;;;;37.58;24.00;;;17.60;99.90;;;;;;5035441;28;20258;-75
2023/08/18 00:39:23;;;;;;;43.72;24.08;;;17.60;99.90;;;;;;5017769;28;20175;-75
2023/08/18 00:41:49;;;;;;;41.53;22.95;;;17.60;99.90;;;;;;5017577;28;20178;-75
2023/08/18 00:44:15;;;;;;;40.03;24.20;;;17.60;99.90;;;;;;5035021;28;20651;-75
2023/08/18 00:46:43;;;;;;;41.13;23.50;;;17.60;99.90;;;;;;5017574;28;20714;-75
2023/08/18 00:49:10;;;;;;;40.90;24.35;;;17.60;99.90;;;;;;5035165;28;20194;-75
2023/08/18 00:51:39;;;;;;;39.55;22.17;;;17.60;99.90;;;;;;5035256;28;20195;-75
2023/08/18 00:54:05;;;;;;;42.08;23.65;;;17.60;99.90;;;;;;5034750;28;20294;-76
2023/08/18 00:56:32;;;;;;;40.67;22.75;;;17.60;99.90;;;;;;5035169;28;20206;-75
2023/08/18 00:58:59;;;;;;;39.50;24.02;;;17.60;99.90;;;;;;5017070;28;20187;-75
2023/08/18 01:01:25;;;;;;;45.85;25.48;;;17.50;99.90;;;;;;5017150;28;20171;-75
2023/08/18 01:03:51;;;;;;;49.92;25.35;;;17.50;99.90;;;;;;5034707;28;20690;-75
2023/08/18 01:06:16;;;;;;;42.88;24.45;;;17.50;99.90;;;;;;5034708;28;20198;-75
2023/08/18 01:08:42;;;;;;;40.00;23.73;;;17.50;99.90;;;;;;5034741;28;20667;-75
2023/08/18 01:11:23;;;;;;;45.40;23.58;;;17.50;99.90;;;;;;5016745;28;20191;-75
2023/08/18 01:14:09;;;;;;;37.95;23.55;;;17.50;99.90;;;;;;5016495;28;20648;-75
2023/08/18 01:16:36;;;;;;;44.00;24.73;;;17.50;99.90;;;;;;5015893;28;20171;-75
2023/08/18 01:19:04;;;;;;;43.03;24.35;;;17.50;99.90;;;;;;5016574;28;20317;-75
2023/08/18 01:21:30;;;;;;;41.08;24.48;;;17.50;99.90;;;;;;5034301;28;20176;-75
2023/08/18 01:24:01;;;;;;;44.40;24.35;;;17.60;99.90;;;;;;5017072;28;20393;-75
2023/08/18 01:26:26;;;;;;;43.42;24.60;;;17.60;99.90;;;;;;5034465;28;20538;-75
2023/08/18 01:28:52;;;;;;;44.70;24.65;;;17.60;99.90;;;;;;5034074;28;20820;-75
2023/08/18 01:31:22;;;;;;;43.70;23.65;;;17.60;99.90;;;;;;5034399;28;20178;-75
2023/08/18 01:34:04;;;;;;;44.13;24.98;;;17.60;99.90;;;;;;5016860;28;20605;-75
2023/08/18 01:36:35;;;;;;;40.13;23.52;;;17.60;99.90;;;;;;5016370;28;20182;-75
2023/08/18 01:39:02;;;;;;;37.88;23.85;;;17.60;99.90;;;;;;5034179;28;20164;-75
2023/08/18 01:41:30;;;;;;;44.53;25.17;;;17.60;99.90;;;;;;5033920;28;20171;-75
2023/08/18 01:43:56;;;;;;;43.13;24.80;;;17.70;99.90;;;;;;5034170;28;20221;-75
2023/08/18 01:46:21;;;;;;;41.13;23.75;;;17.70;99.90;;;;;;5034363;28;20257;-75
2023/08/18 01:48:47;;;;;;;37.83;23.17;;;17.70;99.90;;;;;;5016155;28;20198;-75
2023/08/18 01:51:13;;;;;;;43.28;24.77;;;17.70;99.90;;;;;;5034494;28;20183;-75
2023/08/18 01:53:38;;;;;;;40.38;22.98;;;17.70;99.90;;;;;;5033667;28;20214;-75
2023/08/18 01:56:04;;;;;;;36.30;23.48;;;17.70;99.90;;;;;;5016048;28;20179;-75
2023/08/18 01:58:30;;;;;;;39.13;22.85;;;17.70;99.90;;;;;;5016037;28;20175;-75
2023/08/18 02:00:56;;;;;;;41.72;25.30;;;17.70;99.90;;;;;;5033559;28;20639;-75
2023/08/18 02:03:26;;;;;;;46.17;25.55;;;17.70;99.90;;;;;;5015963;28;20199;-75
2023/08/18 02:05:53;;;;;;;45.85;25.30;;;17.70;99.90;;;;;;5016285;28;20179;-75
2023/08/18 02:08:19;;;;;;;45.75;25.48;;;17.70;99.90;;;;;;5016265;28;20179;-75
2023/08/18 02:10:45;;;;;;;37.85;24.00;;;17.70;99.90;;;;;;5033925;28;20171;-75
2023/08/18 02:13:10;;;;;;;43.63;25.80;;;17.70;99.90;;;;;;5016194;28;20210;-75
2023/08/18 02:15:36;;;;;;;39.30;24.73;;;17.70;99.90;;;;;;5033521;28;20179;-75
2023/08/18 02:18:02;;;;;;;45.90;26.05;;;17.70;99.90;;;;;;5033700;28;20182;-75
2023/08/18 02:20:28;;;;;;;38.00;22.45;;;17.60;99.90;;;;;;5016096;28;20179;-75
2023/08/18 02:22:53;;;;;;;39.92;24.90;;;17.60;99.90;;;;;;5015989;28;20222;-75
2023/08/18 02:25:21;;;;;;;38.92;22.75;;;17.60;99.90;;;;;;5033737;28;20171;-75
2023/08/18 02:27:46;;;;;;;43.00;24.25;;;17.60;99.90;;;;;;5015502;28;20182;-75
2023/08/18 02:30:12;;;;;;;40.15;24.73;;;17.60;99.90;;;;;;5033434;28;20187;-75
2023/08/18 02:32:38;;;;;;;39.88;24.17;;;17.60;99.90;;;;;;5016008;28;20345;-75
2023/08/18 02:35:16;;;;;;;40.58;24.23;;;17.60;99.90;;;;;;5033813;28;20205;-75
2023/08/18 02:37:41;;;;;;;42.70;25.38;;;17.60;99.90;;;;;;5033850;28;20230;-75
2023/08/18 02:40:08;;;;;;;41.67;24.60;;;17.60;99.90;;;;;;5016189;28;20249;-75
2023/08/18 02:42:35;;;;;;;41.00;25.67;;;17.60;99.90;;;;;;5016432;28;20574;-75
2023/08/18 02:45:01;;;;;;;42.90;25.60;;;17.60;99.90;;;;;;5015727;28;20182;-76
2023/08/18 02:47:27;;;;;;;48.25;25.60;;;17.60;99.90;;;;;;5015606;28;20187;-75
2023/08/18 02:49:53;;;;;;;50.00;26.60;;;17.60;99.90;;;;;;5033415;28;20186;-75
2023/08/18 02:52:19;;;;;;;45.85;26.42;;;17.60;99.90;;;;;;5015641;28;20325;-75
2023/08/18 02:54:44;;;;;;;48.72;26.90;;;17.60;99.90;;;;;;5015466;28;20195;-75
2023/08/18 02:57:10;;;;;;;39.55;24.10;;;17.60;99.90;;;;;;5033396;28;20176;-75
2023/08/18 02:59:36;;;;;;;39.60;23.52;;;17.60;99.90;;;;;;5015432;28;20181;-75
2023/08/18 03:02:01;;;;;;;46.53;24.30;;;17.50;99.90;;;;;;5015279;28;20187;-75
2023/08/18 03:04:27;;;;;;;49.38;24.42;;;17.50;99.90;;;;;;5015480;28;20182;-75
2023/08/18 03:06:53;;;;;;;41.15;23.85;;;17.50;99.90;;;;;;5033426;28;20202;-74
2023/08/18 03:09:19;;;;;;;40.80;22.63;;;17.50;99.90;;;;;;5015776;28;20225;-75
2023/08/18 03:11:44;;;;;;;39.90;22.67;;;17.50;99.90;;;;;;5033432;28;20185;-75
2023/08/18 03:14:12;;;;;;;44.55;25.90;;;17.50;99.90;;;;;;5015103;28;20227;-75
2023/08/18 03:16:38;;;;;;;42.67;24.50;;;17.50;99.90;;;;;;5033522;28;20585;-75
2023/08/18 03:19:04;;;;;;;42.88;22.50;;;17.50;99.90;;;;;;5033202;28;20206;-75
2023/08/18 03:21:30;;;;;;;45.08;24.48;;;17.50;99.90;;;;;;5032953;28;20635;-75
2023/08/18 03:23:56;;;;;;;42.75;23.13;;;17.50;99.90;;;;;;5015239;28;20299;-75
2023/08/18 03:26:21;;;;;;;37.67;21.25;;;17.40;99.90;;;;;;5033011;28;20171;-74
2023/08/18 03:28:47;;;;;;;40.97;21.75;;;17.40;99.90;;;;;;5015486;28;20187;-75
2023/08/18 03:31:13;;;;;;;39.15;22.88;;;17.40;99.90;;;;;;5032793;28;20195;-75
2023/08/18 03:33:39;;;;;;;34.88;20.35;;;17.40;99.90;;;;;;5015235;28;20211;-75
2023/08/18 03:36:04;;;;;;;35.97;20.80;;;17.40;99.90;;;;;;5033318;28;20250;-75
2023/08/18 03:38:30;;;;;;;35.28;19.98;;;17.40;99.90;;;;;;5033406;28;20167;-75
2023/08/18 03:41:01;;;;;;;33.80;20.15;;;17.40;99.90;;;;;;5036397;28;20258;-74
2023/08/18 03:43:27;;;;;;;36.63;20.95;;;17.40;99.90;;;;;;5018719;28;20702;-75
2023/08/18 03:45:53;;;;;;;34.65;20.60;;;17.40;99.90;;;;;;5018345;28;20183;-75
2023/08/18 03:48:19;;;;;;;40.15;21.42;;;17.40;99.90;;;;;;5036520;28;20186;-75
2023/08/18 03:50:45;;;;;;;38.75;21.20;;;17.40;99.90;;;;;;5036614;28;20266;-74
2023/08/18 03:53:11;;;;;;;35.40;20.23;;;17.30;99.90;;;;;;5036084;28;20282;-75
2023/08/18 03:55:37;;;;;;;36.90;21.55;;;17.30;99.90;;;;;;5036196;28;20206;-75
2023/08/18 03:58:02;;;;;;;37.78;22.70;;;17.30;99.90;;;;;;5036168;28;20617;-75
2023/08/18 04:00:28;;;;;;;32.55;20.13;;;17.30;99.90;;;;;;5035971;28;20178;-74
2023/08/18 04:02:54;;;;;;;39.90;22.10;;;17.30;99.90;;;;;;5036008;28;20282;-75
2023/08/18 04:05:19;;;;;;;34.95;20.08;;;17.30;99.90;;;;;;5035921;28;20176;-74
2023/08/18 04:07:45;;;;;;;37.75;21.13;;;17.30;99.90;;;;;;5036125;28;20179;-74
2023/08/18 04:10:11;;;;;;;34.78;19.83;;;17.30;99.90;;;;;;5035922;28;20175;-74
2023/08/18 04:12:37;;;;;;;35.50;20.17;;;17.30;99.90;;;;;;5017907;28;20218;-75
2023/08/18 04:15:03;;;;;;;37.17;20.80;;;17.30;99.90;;;;;;5017948;28;20266;-74
2023/08/18 04:17:29;;;;;;;33.60;19.58;;;17.30;99.90;;;;;;5018094;28;20191;-75
2023/08/18 04:19:55;;;;;;;33.05;19.60;;;17.30;99.90;;;;;;5035732;28;20534;-75
2023/08/18 04:22:21;;;;;;;33.90;19.45;;;17.30;99.90;;;;;;5035672;28;20206;-75
2023/08/18 04:24:46;;;;;;;28.65;17.40;;;17.30;99.90;;;;;;5017998;28;20761;-75
2023/08/18 04:27:13;;;;;;;32.88;19.70;;;17.30;99.90;;;;;;5017984;28;20172;-74
2023/08/18 04:29:39;;;;;;;31.98;18.63;;;17.30;99.90;;;;;;5035422;28;20171;-75
2023/08/18 04:32:05;;;;;;;32.10;17.90;;;17.30;99.90;;;;;;5035614;28;20182;-74
2023/08/18 04:34:31;;;;;;;34.75;18.90;;;17.30;99.90;;;;;;5035698;28;20209;-75
2023/08/18 04:36:56;;;;;;;26.65;17.27;;;17.30;99.90;;;;;;5017853;28;20184;-75
2023/08/18 04:39:22;;;;;;;33.88;18.67;;;17.30;99.90;;;;;;5035623;28;20668;-75
2023/08/18 04:41:48;;;;;;;26.27;16.17;;;17.30;99.90;;;;;;5035723;28;20176;-75
2023/08/18 04:44:13;;;;;;;26.75;16.80;;;17.30;99.90;;;;;;5035250;28;20195;-75
2023/08/18 04:46:39;;;;;;;30.35;18.35;;;17.30;99.90;;;;;;5035890;28;20175;-75
2023/08/18 04:49:05;;;;;;;34.63;18.10;;;17.20;99.90;;;;;;5017699;28;20565;-75
2023/08/18 04:51:31;;;;;;;30.80;17.75;;;17.20;99.90;;;;;;5036140;28;20304;-75
2023/08/18 04:53:56;;;;;;;26.40;16.27;;;17.30;99.90;;;;;;5021295;28;20695;-75
2023/08/18 04:56:22;;;;;;;29.55;17.75;;;17.30;99.90;;;;;;5018483;28;20179;-75
2023/08/18 04:58:48;;;;;;;28.98;17.17;;;17.30;99.90;;;;;;5036095;28;20508;-74
2023/08/18 05:01:14;;;;;;;29.15;18.08;;;17.30;99.90;;;;;;5035148;28;20178;-74
2023/08/18 05:03:39;;;;;;;34.17;18.08;;;17.30;99.90;;;;;;5035131;28;20678;-74
2023/08/18 05:06:12;;;;;;;25.67;16.45;;;17.30;99.90;;;;;;5035998;28;20175;-74
2023/08/18 05:08:42;;;;;;;28.48;17.45;;;17.30;99.90;;;;;;5017297;28;20229;-74
2023/08/18 05:11:09;;;;;;;27.92;17.25;;;17.30;99.90;;;;;;5017197;28;20183;-74
2023/08/18 05:13:37;;;;;;;27.00;15.80;;;17.30;99.90;;;;;;5034494;28;20199;-75
2023/08/18 05:16:03;;;;;;;24.23;15.27;;;17.30;99.90;;;;;;5034394;28;20171;-74
2023/08/18 05:18:29;;;;;;;26.10;15.95;;;17.30;99.90;;;;;;5016904;28;20563;-74
2023/08/18 05:20:59;;;;;;;24.48;15.80;;;17.30;99.90;;;;;;5034496;28;20258;-74
2023/08/18 05:23:25;;;;;;;25.27;15.02;;;17.30;99.90;;;;;;5034881;28;20195;-74
2023/08/18 05:25:54;;;;;;;24.50;14.50;;;17.30;99.90;;;;;;5034380;28;20171;-75
2023/08/18 05:28:25;;;;;;;29.73;15.48;;;17.30;99.90;;;;;;5016550;28;20179;-74
2023/08/18 05:30:52;;;;;;;28.15;16.33;;;17.30;99.90;;;;;;5033917;28;20183;-74
2023/08/18 05:33:18;;;;;;;29.98;15.65;;;17.30;99.90;;;;;;5016442;28;20211;-74
2023/08/18 05:35:44;;;;;;;24.83;14.93;;;17.30;99.90;;;;;;5034267;28;20155;-75
2023/08/18 05:38:10;;;;;;;22.75;14.10;;;17.30;99.90;;;;;;5034232;28;20544;-74
2023/08/18 05:40:49;;;;;;;23.60;14.50;;;17.30;99.90;;;;;;5034106;28;20175;-74
2023/08/18 05:43:16;;;;;;;22.23;13.43;;;17.30;99.90;;;;;;5016250;28;20252;-74
2023/08/18 05:45:44;;;;;;;26.52;15.27;;;17.30;99.90;;;;;;5016012;28;20229;-74
2023/08/18 05:48:10;;;;;;;21.60;13.55;;;17.30;99.90;;;;;;5033990;28;20179;-74
2023/08/18 05:50:36;;;;;;;24.25;15.18;;;17.40;99.90;;;;;;5016151;28;20266;-74
2023/08/18 05:53:03;;;;;;;21.17;13.50;;;17.40;99.90;;;;;;5016231;28;20207;-75
2023/08/18 05:55:29;;;;;;;23.25;14.07;;;17.40;99.90;;;;;;5033713;28;20221;-75
2023/08/18 05:57:59;;;;;;;26.00;13.88;;;17.40;99.90;;;;;;5033842;28;20273;-75
2023/08/18 06:00:25;;;;;;;25.23;14.23;;;17.40;99.90;;;;;;5015790;28;20198;-76
2023/08/18 06:02:50;;;;;;;19.83;13.02;;;17.40;99.90;;;;;;5015419;28;20663;-77
2023/08/18 06:05:16;;;;;;;22.75;14.48;;;17.40;99.90;;;;;;5016050;28;20531;-76
2023/08/18 06:07:42;;;;;;;22.65;13.35;;;17.40;99.90;;;;;;5016046;28;20186;-74
2023/08/18 06:10:12;;;;;;;20.27;12.60;;;17.40;99.90;;;;;;5016089;28;20179;-74
2023/08/18 06:12:38;;;;;;;19.75;12.63;;;17.40;99.90;;;;;;5033719;28;20547;-74
2023/08/18 06:15:05;;;;;;;19.02;11.60;;;17.50;99.90;;;;;;5015904;28;20185;-74
2023/08/18 06:17:31;;;;;;;18.73;12.10;;;17.50;99.90;;;;;;5016422;28;20560;-74
2023/08/18 06:19:58;;;;;;;19.27;12.63;;;17.50;99.90;;;;;;5015927;28;20183;-74
2023/08/18 06:22:24;;;;;;;19.58;12.13;;;17.50;99.90;;;;;;5015999;28;20199;-74
2023/08/18 06:24:50;;;;;;;19.27;11.93;;;17.50;99.90;;;;;;5033658;28;20199;-74
2023/08/18 06:27:16;;;;;;;20.88;11.98;;;17.50;99.90;;;;;;5033613;28;20559;-74
2023/08/18 06:29:42;;;;;;;22.65;12.93;;;17.60;99.90;;;;;;5033314;28;20682;-74
2023/08/18 06:32:08;;;;;;;21.80;12.32;;;17.60;99.90;;;;;;5015780;28;20178;-74
2023/08/18 06:34:33;;;;;;;22.92;13.60;;;17.60;99.90;;;;;;5033407;28;20199;-74
2023/08/18 06:36:59;;;;;;;16.90;11.48;;;17.60;99.90;;;;;;5015859;28;20179;-74
2023/08/18 06:39:25;;;;;;;20.70;13.05;;;17.60;99.90;;;;;;5015731;28;20179;-74
2023/08/18 06:41:51;;;;;;;21.27;12.93;;;17.70;99.90;;;;;;5033699;28;20179;-74
2023/08/18 06:44:17;;;;;;;20.00;12.82;;;17.70;99.90;;;;;;5015666;28;20256;-74
2023/08/18 06:46:42;;;;;;;20.05;11.52;;;17.70;99.90;;;;;;5033078;28;20622;-74
2023/08/18 06:49:08;;;;;;;21.65;13.52;;;17.70;99.90;;;;;;4999404;28;20215;-74
2023/08/18 06:51:34;;;;;;;20.90;12.70;;;17.70;99.90;;;;;;4995998;28;20180;-74
2023/08/18 06:54:00;;;;;;;20.10;11.85;;;17.80;99.90;;;;;;5013343;28;20215;-74
2023/08/18 06:56:25;;;;;;;18.70;12.23;;;17.80;99.90;;;;;;4996059;28;20183;-74
2023/08/18 06:58:51;;;;;;;22.60;12.73;;;17.80;99.90;;;;;;5013417;28;20171;-74
2023/08/18 07:01:17;;;;;;;19.63;12.30;;;17.90;99.90;;;;;;5013332;28;20532;-74
2023/08/18 07:03:43;;;;;;;19.23;12.77;;;17.90;99.90;;;;;;4996110;28;20195;-74
2023/08/18 07:06:09;;;;;;;18.92;12.18;;;17.90;99.90;;;;;;5013483;28;20198;-74
2023/08/18 07:08:34;;;;;;;19.30;12.40;;;17.90;99.90;;;;;;4996179;28;20270;-74
2023/08/18 07:11:00;;;;;;;19.35;12.70;;;17.90;99.90;;;;;;4996273;28;20266;-74
2023/08/18 07:13:26;;;;;;;19.83;13.77;;;17.90;99.90;;;;;;5015562;28;20563;-74
2023/08/18 07:15:52;;;;;;;19.92;14.13;;;17.90;99.90;;;;;;4999393;28;20176;-74
2023/08/18 07:18:18;;;;;;;22.13;13.00;;;17.90;99.90;;;;;;5026489;28;20180;-74
2023/08/18 07:20:45;;;;;;;15.88;10.15;;;17.90;99.90;;;;;;5037119;28;20175;-74
2023/08/18 07:23:11;;;;;;;19.30;12.85;;;18.00;99.90;;;;;;5036789;28;20194;-74
2023/08/18 07:25:39;;;;;;;19.30;13.45;;;18.10;99.90;;;;;;5037030;28;20232;-74
2023/08/18 07:28:05;;;;;;;17.23;11.68;;;18.10;99.90;;;;;;5036677;28;20175;-74
2023/08/18 07:30:31;;;;;;;18.20;12.38;;;18.10;99.90;;;;;;5018756;28;20229;-74
2023/08/18 07:32:57;;;;;;;15.88;11.18;;;18.20;99.90;;;;;;5018592;28;20215;-74
2023/08/18 07:35:23;;;;;;;15.63;11.52;;;18.20;99.90;;;;;;5036618;28;20613;-74
2023/08/18 07:37:51;;;;;;;16.63;12.40;;;18.30;99.90;;;;;;5036284;28;20182;-74
2023/08/18 07:40:20;;;;;;;15.02;10.93;;;18.30;99.90;;;;;;5036611;28;20176;-74
2023/08/18 07:42:46;;;;;;;17.05;10.77;;;18.40;99.90;;;;;;5018596;28;20733;-74
2023/08/18 07:45:12;;;;;;;16.58;10.82;;;18.30;99.90;;;;;;5035944;28;20187;-74
2023/08/18 07:47:42;;;;;;;15.40;9.85;;;18.40;99.90;;;;;;5036094;28;20187;-74
2023/08/18 07:50:12;;;;;;;14.65;10.77;;;18.40;99.90;;;;;;5036357;28;20160;-74
2023/08/18 07:52:38;;;;;;;15.20;10.10;;;18.50;99.90;;;;;;5036042;28;20211;-74
2023/08/18 07:55:05;;;;;;;17.40;11.30;;;18.60;99.90;;;;;;5036043;28;20190;-74
2023/08/18 07:57:31;;;;;;;14.55;10.25;;;18.60;99.90;;;;;;5035984;28;20171;-74
2023/08/18 07:59:57;;;;;;;15.00;10.15;;;18.60;99.90;;;;;;5018311;28;20738;-74
2023/08/18 08:02:23;;;;;;;14.50;10.82;;;18.70;99.90;;;;;;5035926;28;20223;-74
2023/08/18 08:04:50;;;;;;;12.75;9.63;;;18.80;99.90;;;;;;5036298;28;20175;-74
2023/08/18 08:07:16;;;;;;;13.07;8.98;;;18.80;99.90;;;;;;5018329;28;20178;-74
2023/08/18 08:09:42;;;;;;;15.27;10.90;;;18.90;99.90;;;;;;5037890;28;20172;-74
2023/08/18 08:12:08;;;;;;;15.98;11.82;;;18.90;99.90;;;;;;5036452;28;20179;-74
2023/08/18 08:14:34;;;;;;;14.55;11.18;;;18.90;99.90;;;;;;5018253;28;20633;-74
2023/08/18 08:16:59;;;;;;;13.43;9.20;;;18.90;99.90;;;;;;5035824;28;20159;-74
2023/08/18 08:19:25;;;;;;;13.52;10.23;;;19.00;99.90;;;;;;5018020;28;20182;-74
2023/08/18 08:21:52;;;;;;;16.25;11.48;;;19.10;99.90;;;;;;5036406;28;20175;-74
2023/08/18 08:24:18;;;;;;;15.23;11.40;;;19.30;99.90;;;;;;5035019;28;20221;-74
2023/08/18 08:26:44;;;;;;;14.00;10.57;;;19.20;99.90;;;;;;5035636;28;20234;-74
2023/08/18 08:29:09;;;;;;;12.00;10.05;;;19.30;99.90;;;;;;5017936;28;20183;-74
2023/08/18 08:31:36;;;;;;;12.68;10.35;;;19.30;99.90;;;;;;5035361;28;20170;-74
2023/08/18 08:34:02;;;;;;;12.68;10.20;;;19.30;99.90;;;;;;5035328;28;20203;-74
2023/08/18 08:36:32;;;;;;;12.25;9.05;;;19.50;99.90;;;;;;5035954;28;20265;-74
2023/08/18 08:39:02;;;;;;;12.13;9.75;;;19.50;99.90;;;;;;5017770;28;20206;-74
2023/08/18 08:41:28;;;;;;;13.30;10.35;;;19.70;99.90;;;;;;5035955;28;20159;-74
2023/08/18 08:43:54;;;;;;;14.02;10.85;;;19.70;99.90;;;;;;5017461;28;20260;-74
2023/08/18 08:46:21;;;;;;;17.75;10.77;;;19.80;99.90;;;;;;5017778;28;20183;-74
2023/08/18 08:48:48;;;;;;;16.85;10.20;;;19.80;99.90;;;;;;5017371;28;20214;-74
2023/08/18 08:51:15;;;;;;;14.52;11.27;;;19.90;99.90;;;;;;5035338;28;20167;-75
2023/08/18 08:53:46;;;;;;;14.27;11.05;;;20.00;99.90;;;;;;5035228;28;20206;-76
2023/08/18 08:56:14;;;;;;;13.05;10.75;;;19.90;99.90;;;;;;5035743;28;20168;-77
2023/08/18 08:58:41;;;;;;;11.23;9.10;;;20.10;99.90;;;;;;5018289;28;20567;-77
2023/08/18 09:01:07;;;;;;;13.10;9.77;;;20.20;99.90;;;;;;5017585;28;20590;-75
2023/08/18 09:03:34;;;;;;;9.70;8.13;;;20.40;99.90;;;;;;5017412;28;20281;-75
2023/08/18 09:05:59;;;;;;;10.98;8.02;;;20.50;99.90;;;;;;5017374;28;20171;-76
2023/08/18 09:08:25;;;;;;;10.88;8.35;;;20.60;99.90;;;;;;5017855;28;20206;-75
2023/08/18 09:10:51;;;;;;;12.55;10.13;;;20.90;99.90;;;;;;5036048;28;20171;-75
2023/08/18 09:13:17;;;;;;;10.90;9.25;;;21.10;99.90;;;;;;5019159;28;20222;-75
2023/08/18 09:15:44;;;;;;;11.30;8.93;;;21.10;99.90;;;;;;5018087;28;20662;-75
2023/08/18 09:18:16;;;;;;;9.75;7.88;;;21.40;99.90;;;;;;5035928;28;20722;-76
2023/08/18 09:20:45;;;;;;;11.93;9.35;;;21.60;99.90;;;;;;5018604;28;20167;-76
2023/08/18 09:23:11;;;;;;;12.32;9.70;;;21.70;99.90;;;;;;5035895;28;20274;-76
2023/08/18 09:25:37;;;;;;;9.38;8.25;;;22.00;99.90;;;;;;5018764;28;20225;-75
2023/08/18 09:28:04;;;;;;;9.20;7.93;;;22.50;99.90;;;;;;5018338;28;20179;-75
2023/08/18 09:30:31;;;;;;;9.15;7.72;;;23.00;99.90;;;;;;5034152;28;20175;-75
2023/08/18 09:33:00;;;;;;;10.38;8.63;;;23.20;99.90;;;;;;5034202;28;20233;-76
2023/08/18 09:35:26;;;;;;;10.10;8.02;;;23.40;99.90;;;;;;5034004;28;20229;-75
2023/08/18 09:37:59;;;;;;;10.35;7.80;;;23.40;99.90;;;;;;5016271;28;20175;-77
2023/08/18 09:40:26;;;;;;;11.38;8.20;;;23.30;99.90;;;;;;5017280;28;20176;-76
2023/08/18 09:42:51;;;;;;;10.02;7.32;;;23.30;99.90;;;;;;5035243;28;20667;-77
2023/08/18 09:45:22;;;;;;;11.10;9.00;;;23.60;99.90;;;;;;5016879;28;20189;-77
2023/08/18 09:47:50;;;;;;;12.10;9.45;;;23.80;99.90;;;;;;5016682;28;20655;-76
2023/08/18 09:50:19;;;;;;;11.80;9.88;;;23.60;99.90;;;;;;5016596;28;20623;-77
2023/08/18 09:52:50;;;;;;;16.17;9.77;;;23.60;99.90;;;;;;5034103;28;20203;-76
2023/08/18 09:55:18;;;;;;;15.07;10.13;;;23.50;99.90;;;;;;5033796;28;20195;-76
2023/08/18 09:57:53;;;;;;;13.98;9.70;;;23.20;99.90;;;;;;5016342;28;20184;-77
2023/08/18 10:00:21;;;;;;;10.05;8.07;;;22.90;99.90;;;;;;5016148;28;20174;-76
2023/08/18 10:02:49;;;;;;;13.88;9.90;;;22.60;99.90;;;;;;5033816;28;20194;-76
2023/08/18 10:05:15;;;;;;;12.27;10.18;;;22.40;99.90;;;;;;5016004;28;20194;-76
2023/08/18 10:07:42;;;;;;;10.43;7.65;;;22.40;99.90;;;;;;5033701;28;20171;-77
2023/08/18 10:10:08;;;;;;;12.98;10.10;;;22.40;99.90;;;;;;5033954;28;20559;-77
2023/08/18 10:12:34;;;;;;;14.48;11.18;;;22.70;99.90;;;;;;5015910;28;20310;-76
2023/08/18 10:15:01;;;;;;;15.73;10.43;;;22.90;99.90;;;;;;5016096;28;20207;-76
2023/08/18 10:17:27;;;;;;;14.27;10.45;;;23.00;99.90;;;;;;5033547;28;20196;-76
2023/08/18 10:19:55;;;;;;;14.30;10.48;;;23.10;99.90;;;;;;5016100;28;20171;-77
2023/08/18 10:22:29;;;;;;;13.43;11.25;;;23.40;99.90;;;;;;5015959;28;20191;-76
2023/08/18 10:24:56;;;;;;;15.43;10.35;;;23.40;99.90;;;;;;5033636;28;20254;-75
2023/08/18 10:27:27;;;;;;;12.73;9.38;;;23.50;99.90;;;;;;5033692;28;20203;-75
2023/08/18 10:30:20;;;;;;;13.10;10.40;;;23.70;99.90;;;;;;5015792;28;20186;-75
2023/08/18 10:32:46;;;;;;;17.38;11.98;;;23.80;99.90;;;;;;5032789;28;20225;-75
2023/08/18 10:35:17;;;;;;;15.98;11.95;;;23.80;99.90;;;;;;5033883;28;20254;-76
2023/08/18 10:37:44;;;;;;;12.80;8.80;;;23.70;99.90;;;;;;5033973;28;20179;-75
2023/08/18 10:40:20;;;;;;;12.75;10.15;;;23.80;99.90;;;;;;5033764;28;20182;-75
2023/08/18 10:42:46;;;;;;;13.60;10.15;;;23.80;99.90;;;;;;5016042;28;20679;-75
2023/08/18 10:45:26;;;;;;;12.45;9.18;;;23.80;99.90;;;;;;5033854;28;20176;-75
2023/08/18 10:47:53;;;;;;;15.50;11.85;;;23.90;99.90;;;;;;5017106;28;20719;-75
2023/08/18 10:50:19;;;;;;;14.20;11.55;;;23.80;99.90;;;;;;5037525;28;20262;-75
2023/08/18 10:52:46;;;;;;;14.25;10.65;;;23.70;99.90;;;;;;5037563;28;20286;-75
2023/08/18 10:55:11;;;;;;;14.02;10.77;;;23.80;99.90;;;;;;5037541;28;20187;-75
2023/08/18 10:57:37;;;;;;;14.18;12.05;;;23.80;99.90;;;;;;5037469;28;20179;-75
2023/08/18 11:00:11;;;;;;;14.07;10.15;;;23.70;99.90;;;;;;5019816;28;20199;-75
2023/08/18 11:02:37;;;;;;;13.52;11.25;;;23.80;99.90;;;;;;5037180;28;20191;-75
2023/08/18 11:05:07;;;;;;;17.77;11.73;;;23.90;99.90;;;;;;5019769;28;20186;-75
2023/08/18 11:07:33;;;;;;;11.48;9.23;;;24.00;99.90;;;;;;5037452;28;20178;-75
2023/08/18 11:09:59;;;;;;;14.30;10.18;;;24.00;99.90;;;;;;5037523;28;20195;-75
2023/08/18 11:12:25;;;;;;;12.73;9.90;;;24.20;99.90;;;;;;5037684;28;20218;-75
2023/08/18 11:14:51;;;;;;;13.30;10.23;;;24.30;99.90;;;;;;5037658;28;20170;-75
2023/08/18 11:17:16;;;;;;;14.90;11.30;;;24.40;99.90;;;;;;5037823;28;20171;-77
2023/08/18 11:19:43;;;;;;;9.63;7.28;;;24.60;99.90;;;;;;5041195;28;20175;-74
2023/08/18 11:22:11;;;;;;;8.32;7.30;;;24.70;99.90;;;;;;5022345;28;20186;-75
2023/08/18 11:24:37;;;;;;;12.57;8.25;;;25.10;99.90;;;;;;5039062;28;20171;-75
2023/08/18 11:27:03;;;;;;;8.30;7.35;;;25.40;99.90;;;;;;5037792;28;20182;-74
2023/08/18 11:29:29;;;;;;;10.30;8.90;;;25.50;99.90;;;;;;5019836;28;20275;-74
2023/08/18 11:31:55;;;;;;;8.88;6.93;;;25.70;99.90;;;;;;5037260;28;20651;-75
2023/08/18 11:34:21;;;;;;;9.65;7.22;;;25.80;99.90;;;;;;5037381;28;20633;-75
2023/08/18 11:36:47;;;;;;;8.43;6.75;;;25.80;99.90;;;;;;5037043;28;20705;-75
2023/08/18 11:39:13;;;;;;;8.70;6.30;;;26.10;99.90;;;;;;5036989;28;20179;-75
2023/08/18 11:41:42;;;;;;;10.25;8.43;;;26.30;99.90;;;;;;5036825;28;20171;-74
2023/08/18 11:44:09;;;;;;;10.02;8.25;;;26.30;99.90;;;;;;5036742;28;20233;-74
2023/08/18 11:46:36;;;;;;;8.57;7.68;;;26.40;99.90;;;;;;5036724;28;20175;-74
2023/08/18 11:49:11;;;;;;;7.93;6.40;;;26.50;99.90;;;;;;5036486;28;20179;-74
2023/08/18 11:51:37;;;;;;;9.82;7.60;;;26.60;99.90;;;;;;5036849;28;20155;-74
2023/08/18 11:54:12;;;;;;;7.50;6.70;;;26.90;99.90;;;;;;5036204;28;20574;-74
2023/08/18 11:56:40;;;;;;;8.60;7.20;;;27.10;99.90;;;;;;5019069;28;20575;-74
2023/08/18 11:59:06;;;;;;;9.88;7.10;;;27.30;99.90;;;;;;5035534;28;20210;-75
2023/08/18 12:01:33;;;;;;;11.52;7.07;;;27.40;99.90;;;;;;5018347;28;20175;-75
2023/08/18 12:04:00;;;;;;;9.60;7.10;;;27.50;99.90;;;;;;5038159;28;20226;-75
2023/08/18 12:06:26;;;;;;;9.57;7.38;;;27.60;99.90;;;;;;5018587;28;20179;-75
2023/08/18 12:08:52;;;;;;;10.35;8.20;;;27.60;99.90;;;;;;5036157;28;20197;-74
2023/08/18 12:11:17;;;;;;;9.02;7.47;;;27.50;99.90;;;;;;5035967;28;20643;-75
2023/08/18 12:13:43;;;;;;;9.93;7.50;;;27.70;99.90;;;;;;5035964;28;20233;-75
2023/08/18 12:16:09;;;;;;;7.53;5.57;;;27.80;99.90;;;;;;5036081;28;20176;-75
2023/08/18 12:18:35;;;;;;;8.45;6.97;;;28.00;99.90;;;;;;5018255;28;20667;-75
2023/08/18 12:21:00;;;;;;;9.35;7.95;;;28.10;99.90;;;;;;5018227;28;20211;-75
2023/08/18 12:23:26;;;;;;;8.68;7.55;;;27.90;99.90;;;;;;5017992;28;20201;-75
2023/08/18 12:25:52;;;;;;;12.13;7.85;;;27.80;99.90;;;;;;5018077;28;20631;-75
2023/08/18 12:28:18;;;;;;;9.93;6.95;;;27.80;99.90;;;;;;5017944;28;20197;-75